Time;durP1;ratioP1;P1;durP2;ratioP2;P2;SDS_P1;SDS_P2;PMS_P1;PMS_P2;Temp;Humidity;BMP_temperature;BMP_pressure;BME280_temperature;BME280_humidity;BME280_pressure;Samples;Min_cycle;Max_cycle;Signal;HPM_P1;HPM_P2
2024/03/26 00:02:10;;;;;;;4.93;2.58;;;;;;;8.82;100.00;99601.56;5275539;28;20043;-74
2024/03/26 00:04:42;;;;;;;11.70;3.25;;;;;;;8.74;100.00;99605.16;5262586;28;20015;-77
2024/03/26 00:07:12;;;;;;;10.95;2.83;;;;;;;8.68;100.00;99591.69;5279086;28;20073;-74
2024/03/26 00:09:43;;;;;;;6.63;2.80;;;;;;;8.61;100.00;99588.94;5266685;28;20028;-74
2024/03/26 00:12:14;;;;;;;8.52;3.25;;;;;;;8.55;100.00;99582.47;5275087;28;20085;-77
2024/03/26 00:14:45;;;;;;;8.40;3.10;;;;;;;8.48;100.00;99578.03;5269090;28;20051;-74
2024/03/26 00:17:16;;;;;;;8.30;2.70;;;;;;;8.53;100.00;99578.31;5271329;28;20031;-77
2024/03/26 00:19:46;;;;;;;7.20;2.95;;;;;;;8.51;100.00;99577.69;5279681;28;20028;-74
2024/03/26 00:22:17;;;;;;;6.25;3.03;;;;;;;8.42;100.00;99571.59;5280554;28;20031;-74
2024/03/26 00:24:47;;;;;;;7.40;2.70;;;;;;;8.34;100.00;99566.31;5268503;28;20035;-74
2024/03/26 00:27:17;;;;;;;8.75;2.50;;;;;;;8.40;100.00;99564.78;5278384;28;20024;-76
2024/03/26 00:29:48;;;;;;;7.45;2.88;;;;;;;8.38;100.00;99559.59;5272372;28;20532;-76
2024/03/26 00:32:18;;;;;;;9.70;2.85;;;;;;;8.36;100.00;99553.63;5275612;28;20058;-75
2024/03/26 00:34:49;;;;;;;10.50;2.80;;;;;;;8.34;100.00;99555.63;5271584;28;20037;-74
2024/03/26 00:37:19;;;;;;;10.75;2.95;;;;;;;8.34;100.00;99549.44;5272095;28;20031;-74
2024/03/26 00:39:50;;;;;;;11.07;4.18;;;;;;;8.30;100.00;99554.31;5272901;28;20130;-76
2024/03/26 00:42:20;;;;;;;13.52;2.75;;;;;;;8.28;100.00;99548.31;5273175;28;20028;-77
2024/03/26 00:44:51;;;;;;;8.65;2.75;;;;;;;8.25;100.00;99541.50;5271690;28;20069;-75
2024/03/26 00:47:21;;;;;;;6.78;2.60;;;;;;;8.21;100.00;99540.22;5267808;28;20024;-74
2024/03/26 00:49:52;;;;;;;7.40;2.60;;;;;;;8.20;100.00;99535.88;5276902;28;20023;-75
2024/03/26 00:52:22;;;;;;;7.32;3.00;;;;;;;8.19;100.00;99544.91;5274936;28;20089;-75
2024/03/26 00:54:53;;;;;;;8.27;2.58;;;;;;;8.18;100.00;99535.25;5275633;28;20030;-75
2024/03/26 00:57:23;;;;;;;6.03;2.28;;;;;;;8.16;100.00;99523.91;5278501;28;20035;-75
2024/03/26 00:59:54;;;;;;;8.73;2.67;;;;;;;8.16;100.00;99523.06;5283106;28;20031;-75
2024/03/26 01:02:24;;;;;;;8.57;2.47;;;;;;;8.15;100.00;99524.91;5278294;28;20381;-75
2024/03/26 01:04:54;;;;;;;7.13;3.20;;;;;;;8.12;100.00;99513.75;5279777;28;20020;-75
2024/03/26 01:07:25;;;;;;;7.47;2.50;;;;;;;8.13;100.00;99512.75;5278128;28;20020;-75
2024/03/26 01:09:56;;;;;;;6.85;2.85;;;;;;;8.13;100.00;99513.56;5268748;28;20534;-75
2024/03/26 01:12:26;;;;;;;5.30;2.63;;;;;;;8.10;100.00;99508.63;5275344;28;20027;-74
2024/03/26 01:14:57;;;;;;;12.23;3.10;;;;;;;8.07;100.00;99502.78;5278621;28;20034;-75
2024/03/26 01:17:27;;;;;;;8.13;2.88;;;;;;;8.05;100.00;99503.00;5273749;28;20032;-75
2024/03/26 01:19:58;;;;;;;9.95;2.75;;;;;;;8.03;100.00;99489.81;5268832;28;20028;-75
2024/03/26 01:22:28;;;;;;;8.57;2.65;;;;;;;8.03;100.00;99491.63;5275507;28;20020;-75
2024/03/26 01:24:59;;;;;;;11.50;2.67;;;;;;;8.03;100.00;99492.50;5269151;28;20051;-75
2024/03/26 01:27:29;;;;;;;7.22;3.30;;;;;;;8.01;100.00;99481.16;5279338;28;20102;-74
2024/03/26 01:30:00;;;;;;;8.65;2.38;;;;;;;8.00;100.00;99478.66;5276760;28;20408;-75
2024/03/26 01:32:30;;;;;;;9.15;2.63;;;;;;;7.99;100.00;99474.34;5277956;28;20119;-74
2024/03/26 01:35:01;;;;;;;9.38;3.00;;;;;;;7.91;100.00;99469.91;5279707;28;20019;-74
2024/03/26 01:37:31;;;;;;;8.60;3.15;;;;;;;7.89;100.00;99468.44;5274889;28;20020;-75
2024/03/26 01:40:02;;;;;;;6.88;2.72;;;;;;;7.86;100.00;99463.47;5277686;28;20538;-74
2024/03/26 01:42:33;;;;;;;9.20;2.42;;;;;;;7.81;100.00;99465.84;5268086;28;20024;-75
2024/03/26 01:45:04;;;;;;;5.65;2.65;;;;;;;7.75;100.00;99462.06;5273836;28;20023;-75
2024/03/26 01:47:36;;;;;;;6.78;1.90;;;;;;;7.66;100.00;99455.13;5273532;28;20043;-75
2024/03/26 01:50:10;;;;;;;8.80;2.70;;;;;;;7.59;100.00;99447.03;5270914;28;20023;-75
2024/03/26 01:52:42;;;;;;;6.80;2.50;;;;;;;7.59;100.00;99440.88;5272114;28;20035;-75
2024/03/26 01:55:12;;;;;;;5.18;2.85;;;;;;;7.57;100.00;99433.03;5278406;28;20027;-75
2024/03/26 01:57:44;;;;;;;8.25;3.13;;;;;;;7.55;100.00;99434.22;5275424;28;20078;-75
2024/03/26 02:00:19;;;;;;;7.95;2.38;;;;;;;7.50;100.00;99432.94;5257107;28;20431;-75
2024/03/26 02:02:50;;;;;;;10.18;3.15;;;;;;;7.44;100.00;99422.97;5271131;28;20103;-75
2024/03/26 02:05:21;;;;;;;7.32;2.55;;;;;;;7.42;100.00;99419.66;5272292;28;20446;-75
2024/03/26 02:07:52;;;;;;;9.63;3.15;;;;;;;7.41;100.00;99419.84;5279436;28;20114;-74
2024/03/26 02:10:22;;;;;;;7.90;2.67;;;;;;;7.34;100.00;99414.41;5273697;28;20060;-74
2024/03/26 02:12:53;;;;;;;9.20;2.30;;;;;;;7.34;100.00;99410.91;5273762;28;20098;-75
2024/03/26 02:15:24;;;;;;;11.15;2.75;;;;;;;7.33;100.00;99404.75;5276829;28;20027;-75
2024/03/26 02:17:54;;;;;;;9.15;2.60;;;;;;;7.32;100.00;99397.72;5273397;28;20043;-74
2024/03/26 02:20:25;;;;;;;4.30;2.25;;;;;;;7.30;100.00;99402.44;5278328;28;20026;-74
2024/03/26 02:22:56;;;;;;;12.18;2.80;;;;;;;7.31;100.00;99404.09;5272408;28;20612;-75
2024/03/26 02:25:27;;;;;;;6.75;2.45;;;;;;;7.30;100.00;99394.44;5276334;28;20020;-75
2024/03/26 02:27:57;;;;;;;6.75;3.05;;;;;;;7.28;100.00;99377.78;5274424;28;20065;-75
2024/03/26 02:30:29;;;;;;;7.88;2.80;;;;;;;7.25;100.00;99378.13;5270365;28;20679;-75
2024/03/26 02:32:59;;;;;;;5.35;2.45;;;;;;;7.24;100.00;99365.81;5271655;28;20020;-74
2024/03/26 02:35:30;;;;;;;8.18;2.22;;;;;;;7.23;100.00;99364.16;5277206;28;20477;-75
2024/03/26 02:38:00;;;;;;;6.43;2.15;;;;;;;7.23;100.00;99369.50;5268515;28;20396;-75
2024/03/26 02:40:32;;;;;;;8.98;2.30;;;;;;;7.22;100.00;99357.13;5263376;28;20020;-75
2024/03/26 02:43:03;;;;;;;8.85;2.72;;;;;;;7.22;100.00;99357.97;5275668;28;20110;-75
2024/03/26 02:45:34;;;;;;;11.57;2.78;;;;;;;7.20;100.00;99356.50;5267312;28;20063;-75
2024/03/26 02:48:06;;;;;;;9.77;2.83;;;;;;;7.19;100.00;99349.53;5276030;28;20488;-74
2024/03/26 02:50:37;;;;;;;8.48;2.72;;;;;;;7.19;100.00;99354.84;5266993;28;20119;-75
2024/03/26 02:53:08;;;;;;;8.82;2.63;;;;;;;7.18;100.00;99350.53;5275612;28;20020;-75
2024/03/26 02:55:38;;;;;;;8.45;2.08;;;;;;;7.15;100.00;99345.56;5268554;28;20027;-75
2024/03/26 02:58:09;;;;;;;20.38;4.18;;;;;;;7.14;100.00;99342.06;5274382;28;20492;-74
2024/03/26 03:00:39;;;;;;;8.40;2.75;;;;;;;7.13;100.00;99342.22;5270212;28;20028;-75
2024/03/26 03:03:10;;;;;;;7.65;2.70;;;;;;;7.08;100.00;99337.47;5268792;28;20028;-75
2024/03/26 03:05:41;;;;;;;8.98;2.67;;;;;;;7.01;100.00;99331.16;5272145;28;20027;-74
2024/03/26 03:08:12;;;;;;;6.70;2.58;;;;;;;6.96;100.00;99331.69;5273535;28;20649;-75
2024/03/26 03:10:42;;;;;;;8.32;2.45;;;;;;;6.91;100.00;99322.59;5271734;28;20395;-75
2024/03/26 03:13:13;;;;;;;10.10;2.88;;;;;;;6.86;100.00;99320.47;5271940;28;20615;-74
2024/03/26 03:15:44;;;;;;;7.28;2.53;;;;;;;6.82;100.00;99319.16;5271818;28;20058;-75
2024/03/26 03:18:19;;;;;;;8.95;2.92;;;;;;;6.78;100.00;99315.22;5274897;28;20419;-74
2024/03/26 03:20:50;;;;;;;7.05;2.45;;;;;;;6.77;100.00;99318.03;5270619;28;20020;-75
2024/03/26 03:23:20;;;;;;;6.82;2.90;;;;;;;6.75;100.00;99302.25;5273565;28;20119;-75
2024/03/26 03:25:55;;;;;;;10.35;3.05;;;;;;;6.71;100.00;99308.94;5267713;28;20020;-75
2024/03/26 03:28:27;;;;;;;10.13;3.00;;;;;;;6.65;100.00;99309.66;5268810;28;20107;-75
2024/03/26 03:30:57;;;;;;;8.43;2.67;;;;;;;6.59;100.00;99297.88;5268718;28;20068;-74
2024/03/26 03:33:42;;;;;;;8.35;2.67;;;;;;;6.57;100.00;99296.38;5268051;27;20020;-74
2024/03/26 03:36:14;;;;;;;8.35;2.60;;;;;;;6.53;100.00;99295.91;5269729;28;20024;-74
2024/03/26 03:38:46;;;;;;;11.85;2.88;;;;;;;6.51;100.00;99289.94;5269371;28;20024;-74
2024/03/26 03:41:16;;;;;;;9.88;2.50;;;;;;;6.50;100.00;99280.28;5271208;28;20042;-74
2024/03/26 03:43:47;;;;;;;6.82;2.53;;;;;;;6.48;100.00;99283.13;5264644;28;20024;-74
2024/03/26 03:46:17;;;;;;;6.30;2.45;;;;;;;6.47;100.00;99281.44;5274176;28;20026;-75
2024/03/26 03:48:48;;;;;;;12.57;2.65;;;;;;;6.49;100.00;99279.44;5265712;28;20027;-74
2024/03/26 03:51:18;;;;;;;8.30;2.13;;;;;;;6.52;100.00;99277.44;5273096;28;20385;-74
2024/03/26 03:53:49;;;;;;;12.30;2.38;;;;;;;6.51;100.00;99281.09;5267688;28;20020;-74
2024/03/26 03:56:19;;;;;;;5.97;2.15;;;;;;;6.51;100.00;99279.28;5270847;28;20026;-74
2024/03/26 03:58:49;;;;;;;8.63;2.15;;;;;;;6.51;100.00;99281.09;5268384;28;20040;-75
2024/03/26 04:01:20;;;;;;;6.95;2.50;;;;;;;6.49;100.00;99274.13;5273939;28;20676;-75
2024/03/26 04:03:50;;;;;;;8.10;2.45;;;;;;;6.51;100.00;99271.28;5265796;28;20028;-74
2024/03/26 04:06:21;;;;;;;11.85;3.17;;;;;;;6.52;100.00;99272.09;5269242;28;20039;-74
2024/03/26 04:08:52;;;;;;;7.55;2.30;;;;;;;6.53;100.00;99271.13;5265474;28;20081;-75
2024/03/26 04:11:22;;;;;;;13.52;3.00;;;;;;;6.51;100.00;99262.47;5271079;28;20035;-74
2024/03/26 04:13:53;;;;;;;8.48;2.47;;;;;;;6.50;100.00;99261.63;5267669;28;20024;-74
2024/03/26 04:16:23;;;;;;;5.35;2.45;;;;;;;6.45;100.00;99262.16;5269307;28;20115;-74
2024/03/26 04:18:54;;;;;;;9.80;2.63;;;;;;;6.45;100.00;99254.16;5269123;28;20077;-75
2024/03/26 04:21:25;;;;;;;12.80;2.35;;;;;;;6.45;100.00;99256.84;5270950;27;20081;-74
2024/03/26 04:23:56;;;;;;;10.70;2.53;;;;;;;6.41;100.00;99252.03;5274032;28;20397;-75
2024/03/26 04:26:26;;;;;;;6.93;2.35;;;;;;;6.40;100.00;99250.38;5273677;28;20024;-75
2024/03/26 04:28:57;;;;;;;9.55;2.20;;;;;;;6.36;100.00;99244.59;5272325;28;20513;-74
2024/03/26 04:31:27;;;;;;;5.38;2.10;;;;;;;6.32;100.00;99248.59;5272804;28;20027;-74
2024/03/26 04:33:58;;;;;;;5.22;2.33;;;;;;;6.32;100.00;99248.59;5269158;28;20020;-74
2024/03/26 04:36:28;;;;;;;11.18;2.67;;;;;;;6.31;100.00;99248.78;5272884;28;20035;-74
2024/03/26 04:38:59;;;;;;;10.90;2.65;;;;;;;6.29;100.00;99246.31;5270858;28;20032;-74
2024/03/26 04:41:29;;;;;;;7.70;3.38;;;;;;;6.28;100.00;99241.16;5274568;28;20016;-74
2024/03/26 04:44:00;;;;;;;12.27;2.67;;;;;;;6.28;100.00;99243.84;5272977;28;20746;-74
2024/03/26 04:46:30;;;;;;;11.80;2.55;;;;;;;6.28;100.00;99238.50;5274751;27;20045;-73
2024/03/26 04:49:01;;;;;;;7.15;2.33;;;;;;;6.28;100.00;99236.66;5275011;28;20028;-74
2024/03/26 04:51:31;;;;;;;6.13;2.63;;;;;;;6.29;100.00;99238.31;5273464;28;20099;-74
2024/03/26 04:54:02;;;;;;;11.27;2.28;;;;;;;6.27;100.00;99239.50;5271845;28;20016;-74
2024/03/26 04:56:32;;;;;;;12.40;3.47;;;;;;;6.26;100.00;99236.00;5275409;28;20035;-74
2024/03/26 04:59:03;;;;;;;11.23;3.00;;;;;;;6.25;100.00;99233.53;5271518;28;20019;-74
2024/03/26 05:01:33;;;;;;;6.47;2.33;;;;;;;6.23;100.00;99233.72;5275534;28;20024;-74
2024/03/26 05:04:04;;;;;;;5.20;2.42;;;;;;;6.20;100.00;99234.88;5271688;28;20366;-74
2024/03/26 05:06:34;;;;;;;14.93;2.83;;;;;;;6.19;100.00;99232.41;5275401;28;20016;-74
2024/03/26 05:09:05;;;;;;;11.10;3.58;;;;;;;6.15;100.00;99247.06;5274467;28;20430;-74
2024/03/26 05:11:36;;;;;;;9.05;2.90;;;;;;;6.11;100.00;99243.91;5273656;28;20051;-74
2024/03/26 05:14:06;;;;;;;10.90;2.60;;;;;;;6.07;100.00;99241.78;5273142;28;20023;-74
2024/03/26 05:16:37;;;;;;;7.78;2.90;;;;;;;6.05;100.00;99249.13;5271733;27;20470;-74
2024/03/26 05:19:07;;;;;;;7.40;2.78;;;;;;;6.01;100.00;99240.66;5275339;28;20016;-74
2024/03/26 05:21:38;;;;;;;10.90;3.25;;;;;;;6.01;100.00;99240.66;5272067;28;20054;-74
2024/03/26 05:24:08;;;;;;;7.78;3.15;;;;;;;6.00;100.00;99241.66;5272438;28;20020;-74
2024/03/26 05:26:40;;;;;;;8.07;2.50;;;;;;;6.00;100.00;99233.69;5272062;28;20042;-74
2024/03/26 05:29:10;;;;;;;12.98;3.10;;;;;;;6.01;100.00;99239.84;5272364;28;20028;-74
2024/03/26 05:31:41;;;;;;;8.30;2.55;;;;;;;5.96;100.00;99233.19;5273163;28;20018;-74
2024/03/26 05:34:11;;;;;;;9.55;2.58;;;;;;;5.95;100.00;99236.88;5273703;28;20076;-74
2024/03/26 05:36:42;;;;;;;8.45;2.85;;;;;;;5.91;100.00;99232.91;5273443;28;20024;-74
2024/03/26 05:39:13;;;;;;;11.52;2.63;;;;;;;5.90;100.00;99231.22;5273487;28;20024;-74
2024/03/26 05:41:43;;;;;;;7.78;2.78;;;;;;;5.90;100.00;99222.41;5272423;28;20034;-74
2024/03/26 05:44:14;;;;;;;12.00;2.80;;;;;;;5.89;100.00;99224.25;5270594;28;20026;-74
2024/03/26 05:46:44;;;;;;;9.23;2.40;;;;;;;5.88;100.00;99224.44;5271425;28;20016;-74
2024/03/26 05:49:15;;;;;;;10.05;3.13;;;;;;;5.88;100.00;99222.59;5274527;28;20485;-74
2024/03/26 05:51:45;;;;;;;9.45;2.40;;;;;;;5.89;100.00;99221.59;5270541;28;20016;-74
2024/03/26 05:54:16;;;;;;;7.78;3.53;;;;;;;5.88;100.00;99217.25;5273790;28;20026;-74
2024/03/26 05:56:46;;;;;;;14.63;3.38;;;;;;;5.93;100.00;99214.13;5271057;28;20427;-74
2024/03/26 05:59:17;;;;;;;8.75;2.60;;;;;;;5.97;100.00;99216.25;5273142;28;20019;-74
2024/03/26 06:01:47;;;;;;;13.38;2.75;;;;;;;6.03;100.00;99220.03;5272099;28;20020;-73
2024/03/26 06:04:18;;;;;;;9.23;2.67;;;;;;;6.08;100.00;99220.34;5271717;28;20023;-73
2024/03/26 06:06:48;;;;;;;14.73;2.85;;;;;;;6.15;100.00;99217.78;5271763;28;20522;-74
2024/03/26 06:09:19;;;;;;;11.70;2.85;;;;;;;6.20;100.00;99210.09;5267318;28;20019;-74
2024/03/26 06:11:49;;;;;;;7.32;3.33;;;;;;;6.25;100.00;99217.53;5270404;28;20069;-74
2024/03/26 06:14:19;;;;;;;14.07;3.72;;;;;;;6.30;100.00;99216.00;5273759;28;20034;-74
2024/03/26 06:16:50;;;;;;;8.18;3.22;;;;;;;6.34;100.00;99217.31;5268950;28;20038;-74
2024/03/26 06:19:20;;;;;;;5.88;3.15;;;;;;;6.40;100.00;99221.09;5267372;28;20030;-74
2024/03/26 06:21:52;;;;;;;9.15;3.20;;;;;;;6.44;100.00;99227.72;5268190;28;20370;-75
2024/03/26 06:24:22;;;;;;;7.78;2.75;;;;;;;6.47;100.00;99222.84;5262735;28;20196;-74
2024/03/26 06:26:53;;;;;;;7.43;3.00;;;;;;;6.52;100.00;99213.47;5268651;28;20023;-74
2024/03/26 06:29:23;;;;;;;10.68;3.38;;;;;;;6.59;100.00;99225.09;5265688;28;20034;-74
2024/03/26 06:31:54;;;;;;;10.40;2.85;;;;;;;6.65;100.00;99213.72;5266824;28;20046;-74
2024/03/26 06:34:24;;;;;;;12.32;2.85;;;;;;;6.70;100.00;99214.81;5265768;28;20019;-74
2024/03/26 06:36:55;;;;;;;7.18;2.92;;;;;;;6.76;100.00;99215.94;5267628;28;20472;-74
2024/03/26 06:39:26;;;;;;;7.07;2.92;;;;;;;6.83;100.00;99216.88;5268064;28;20023;-74
2024/03/26 06:41:57;;;;;;;9.00;2.75;;;;;;;6.88;100.00;99209.16;5267129;28;20028;-74
2024/03/26 06:44:27;;;;;;;16.50;4.05;;;;;;;6.95;100.00;99215.41;5263159;28;20024;-74
2024/03/26 06:46:58;;;;;;;9.80;2.55;;;;;;;7.01;100.00;99209.34;5266977;28;20031;-74
2024/03/26 06:49:28;;;;;;;15.93;4.32;;;;;;;7.10;100.00;99198.59;5266005;28;20504;-74
2024/03/26 06:51:59;;;;;;;10.02;4.10;;;;;;;7.17;100.00;99194.16;5267222;28;20031;-74
2024/03/26 06:54:30;;;;;;;8.43;2.90;;;;;;;7.23;100.00;99201.47;5264947;28;20024;-74
2024/03/26 06:57:00;;;;;;;12.73;3.47;;;;;;;7.33;100.00;99202.00;5267247;28;20096;-74
2024/03/26 06:59:32;;;;;;;19.63;4.80;;;;;;;7.39;100.00;99190.59;5268512;28;20035;-74
2024/03/26 07:02:03;;;;;;;10.40;3.25;;;;;;;7.48;100.00;99193.94;5266890;28;20020;-74
2024/03/26 07:04:34;;;;;;;11.45;3.25;;;;;;;7.57;100.00;99198.16;5262765;28;20064;-74
2024/03/26 07:07:04;;;;;;;11.13;3.47;;;;;;;7.66;100.00;99196.22;5270377;28;20437;-74
2024/03/26 07:09:38;;;;;;;7.15;2.67;;;;;;;7.74;100.00;99198.81;5263310;28;20019;-74
2024/03/26 07:12:08;;;;;;;7.20;2.90;;;;;;;7.84;100.00;99196.66;5265086;28;20035;-74
2024/03/26 07:14:39;;;;;;;9.60;3.30;;;;;;;7.91;100.00;99186.84;5265865;28;20023;-74
2024/03/26 07:17:10;;;;;;;9.95;3.17;;;;;;;7.98;100.00;99185.09;5267190;28;20084;-74
2024/03/26 07:19:40;;;;;;;8.15;3.25;;;;;;;8.02;100.00;99197.03;5266858;28;20470;-74
2024/03/26 07:22:11;;;;;;;16.40;3.47;;;;;;;8.07;100.00;99190.31;5267003;28;20031;-74
2024/03/26 07:24:41;;;;;;;7.97;3.35;;;;;;;8.12;100.00;99195.91;5262555;28;20022;-74
2024/03/26 07:27:12;;;;;;;16.27;4.15;;;;;;;8.17;100.00;99188.13;5267013;28;20028;-74
2024/03/26 07:29:46;;;;;;;9.88;3.63;;;;;;;8.21;100.00;99184.06;5263287;28;20024;-74
2024/03/26 07:32:16;;;;;;;8.90;3.13;;;;;;;8.28;100.00;99184.94;5268918;28;20016;-74
2024/03/26 07:34:46;;;;;;;11.98;3.40;;;;;;;8.34;100.00;99176.19;5262571;28;20077;-74
2024/03/26 07:37:17;;;;;;;7.80;3.08;;;;;;;8.39;100.00;99171.13;5266890;28;20054;-74
2024/03/26 07:39:47;;;;;;;7.85;3.15;;;;;;;8.44;100.00;99167.88;5265906;28;20046;-74
2024/03/26 07:42:18;;;;;;;8.05;3.78;;;;;;;8.48;100.00;99172.66;5265105;28;20480;-74
2024/03/26 07:44:49;;;;;;;12.73;3.72;;;;;;;8.55;100.00;99172.69;5262570;28;20407;-74
2024/03/26 07:47:20;;;;;;;9.90;3.88;;;;;;;8.59;100.00;99162.44;5262456;28;20028;-74
2024/03/26 07:49:50;;;;;;;11.02;3.42;;;;;;;8.63;100.00;99171.69;5262908;28;20023;-74
2024/03/26 07:52:21;;;;;;;11.65;3.60;;;;;;;8.67;100.00;99172.97;5265757;28;20473;-75
2024/03/26 07:54:51;;;;;;;8.73;3.00;;;;;;;8.73;100.00;99167.66;5264840;28;20070;-74
2024/03/26 07:57:22;;;;;;;8.65;3.10;;;;;;;8.80;100.00;99171.22;5275815;28;20375;-74
2024/03/26 07:59:52;;;;;;;6.80;3.28;;;;;;;8.83;100.00;99161.97;5267545;28;20035;-74
2024/03/26 08:02:23;;;;;;;7.63;3.30;;;;;;;8.91;100.00;99164.50;5273473;27;20018;-74
2024/03/26 08:04:53;;;;;;;10.45;3.80;;;;;;;8.97;100.00;99169.06;5268789;28;20470;-75
2024/03/26 08:07:24;;;;;;;9.23;3.30;;;;;;;9.02;100.00;99160.44;5262553;28;20016;-74
2024/03/26 08:09:54;;;;;;;12.30;4.18;;;;;;;9.11;100.00;99164.63;5252933;28;20019;-75
2024/03/26 08:12:25;;;;;;;11.95;3.65;;;;;;;9.21;100.00;99166.94;5267812;28;20028;-74
2024/03/26 08:14:56;;;;;;;9.10;3.40;;;;;;;9.38;100.00;99168.22;5264397;28;20028;-74
2024/03/26 08:17:27;;;;;;;11.18;3.80;;;;;;;9.50;100.00;99158.63;5262474;28;20370;-75
2024/03/26 08:19:57;;;;;;;11.00;3.30;;;;;;;9.66;100.00;99159.28;5269792;28;20016;-76
2024/03/26 08:22:28;;;;;;;10.10;3.53;;;;;;;9.79;100.00;99164.69;5264064;28;20027;-74
2024/03/26 08:24:58;;;;;;;8.60;3.83;;;;;;;9.84;100.00;99163.06;5264903;28;20016;-76
2024/03/26 08:27:29;;;;;;;7.72;3.30;;;;;;;9.92;100.00;99151.31;5268583;28;20047;-74
2024/03/26 08:29:59;;;;;;;7.10;3.67;;;;;;;9.99;100.00;99152.16;5267227;28;20058;-75
2024/03/26 08:32:30;;;;;;;15.60;3.45;;;;;;;10.07;100.00;99151.97;5263711;28;20028;-75
2024/03/26 08:35:00;;;;;;;6.85;3.47;;;;;;;10.08;100.00;99150.09;5262870;28;20152;-75
2024/03/26 08:37:31;;;;;;;12.20;3.25;;;;;;;10.14;100.00;99143.94;5265106;28;20016;-74
2024/03/26 08:40:02;;;;;;;10.43;3.92;;;;;;;10.24;100.00;99146.22;5265089;28;20024;-74
2024/03/26 08:42:37;;;;;;;8.57;3.22;;;;;;;10.33;100.00;99140.47;5267068;28;20480;-75
2024/03/26 08:45:08;;;;;;;14.55;3.60;;;;;;;10.44;100.00;99143.56;5246342;28;20039;-76
2024/03/26 08:47:39;;;;;;;9.48;3.05;;;;;;;10.50;100.00;99134.69;5263651;28;20012;-74
2024/03/26 08:50:09;;;;;;;8.57;3.40;;;;;;;10.54;100.00;99131.41;5263866;28;20032;-74
2024/03/26 08:52:41;;;;;;;8.88;2.92;;;;;;;10.61;100.00;99131.38;5265381;28;20111;-76
2024/03/26 08:55:11;;;;;;;6.22;3.08;;;;;;;10.69;100.00;99124.97;5265036;28;20038;-77
2024/03/26 08:57:42;;;;;;;4.75;2.90;;;;;;;10.75;100.00;99119.63;5264732;28;20425;-74
2024/03/26 09:00:12;;;;;;;10.18;2.85;;;;;;;10.87;100.00;99117.09;5263780;28;20113;-77
2024/03/26 09:02:43;;;;;;;7.45;3.05;;;;;;;10.93;100.00;99113.56;5265213;28;20028;-74
2024/03/26 09:05:14;;;;;;;12.93;4.10;;;;;;;11.02;100.00;99115.00;5269121;28;20031;-76
2024/03/26 09:07:45;;;;;;;14.07;3.10;;;;;;;11.10;100.00;99101.34;5266284;28;20077;-76
2024/03/26 09:10:16;;;;;;;6.65;3.10;;;;;;;11.13;100.00;99098.22;5267234;28;20073;-76
2024/03/26 09:12:47;;;;;;;3.95;2.60;;;;;;;11.13;100.00;99105.47;5262275;28;20419;-74
2024/03/26 09:15:17;;;;;;;9.02;3.35;;;;;;;11.22;100.00;99106.88;5269852;28;20676;-74
2024/03/26 09:17:51;;;;;;;7.53;2.60;;;;;;;11.31;100.00;99112.84;5266815;28;20023;-74
2024/03/26 09:20:22;;;;;;;11.70;2.80;;;;;;;11.28;100.00;99113.25;5267496;28;20024;-74
2024/03/26 09:22:52;;;;;;;6.35;2.65;;;;;;;11.38;100.00;99106.38;5265791;28;20491;-77
2024/03/26 09:25:25;;;;;;;8.20;2.90;;;;;;;11.48;100.00;99108.63;5267454;28;20102;-76
2024/03/26 09:27:55;;;;;;;7.15;2.60;;;;;;;11.43;100.00;99118.34;5267346;28;20018;-76
2024/03/26 09:30:27;;;;;;;10.70;3.10;;;;;;;11.46;100.00;99105.31;5263954;28;20016;-74
2024/03/26 09:32:57;;;;;;;4.93;2.20;;;;;;;11.48;100.00;99107.78;5266095;28;20054;-76
2024/03/26 09:35:28;;;;;;;10.00;2.80;;;;;;;11.59;100.00;99118.66;5269573;28;20154;-75
2024/03/26 09:37:58;;;;;;;11.15;3.15;;;;;;;11.55;100.00;99109.41;5267473;28;20148;-74
2024/03/26 09:40:33;;;;;;;6.57;2.40;;;;;;;11.50;100.00;99109.25;5266757;28;20027;-77
2024/03/26 09:43:06;;;;;;;;;;;;;;;11.61;100.00;99103.19;5266490;28;20036;-76
2024/03/26 09:45:37;;;;;;;6.13;2.67;;;;;;;11.54;100.00;99107.75;5269035;28;20027;-77
2024/03/26 09:48:09;;;;;;;9.27;2.58;;;;;;;11.61;100.00;99103.19;5265664;28;20107;-74
2024/03/26 09:50:41;;;;;;;8.63;2.92;;;;;;;11.73;100.00;99094.44;5266110;28;20027;-75
2024/03/26 09:53:16;;;;;;;5.88;2.67;;;;;;;11.76;100.00;99094.00;5271156;28;20024;-76
2024/03/26 09:55:48;;;;;;;14.32;2.60;;;;;;;11.85;100.00;99098.94;5264361;28;20024;-76
2024/03/26 09:58:19;;;;;;;5.28;2.20;;;;;;;11.91;100.00;99086.50;5266001;28;20023;-75
2024/03/26 10:00:50;;;;;;;7.78;3.00;;;;;;;11.96;100.00;99085.84;5268748;28;20019;-77
2024/03/26 10:03:24;;;;;;;11.27;3.45;;;;;;;11.90;100.00;99079.47;5269328;28;20544;-75
2024/03/26 10:05:55;;;;;;;12.02;3.20;;;;;;;11.94;100.00;99080.66;5266340;28;20557;-74
2024/03/26 10:08:27;;;;;;;7.75;2.53;;;;;;;11.96;100.00;99073.22;5268684;28;20030;-75
2024/03/26 10:10:58;;;;;;;8.45;2.30;;;;;;;12.12;100.00;99078.06;5268897;28;20024;-76
2024/03/26 10:13:29;;;;;;;5.97;2.45;;;;;;;12.13;100.00;99074.31;5268460;28;20051;-76
2024/03/26 10:16:00;;;;;;;13.15;3.33;;;;;;;12.14;100.00;99072.44;5269007;28;20047;-77
2024/03/26 10:18:30;;;;;;;5.55;2.78;;;;;;;12.10;100.00;99074.78;5263547;28;20106;-75
2024/03/26 10:21:05;;;;;;;8.07;3.35;;;;;;;12.16;100.00;99067.69;5266944;28;20032;-75
2024/03/26 10:23:36;;;;;;;6.15;3.05;;;;;;;12.36;100.00;99072.91;5265133;28;20020;-76
2024/03/26 10:26:06;;;;;;;10.65;2.90;;;;;;;12.48;100.00;99064.91;5269383;28;20492;-76
2024/03/26 10:28:37;;;;;;;7.78;2.83;;;;;;;12.53;100.00;99063.22;5269362;28;20028;-75
2024/03/26 10:31:07;;;;;;;4.63;2.67;;;;;;;12.61;100.00;99059.41;5267278;28;20031;-75
2024/03/26 10:33:38;;;;;;;8.20;2.65;;;;;;;12.51;100.00;99064.50;5263538;28;20020;-76
2024/03/26 10:36:11;;;;;;;6.95;3.13;;;;;;;12.59;100.00;99059.63;5265458;28;20085;-78
2024/03/26 10:38:45;;;;;;;9.63;3.30;;;;;;;12.63;100.00;99063.50;5266067;28;20020;-74
2024/03/26 10:41:27;;;;;;;8.20;2.97;;;;;;;12.73;100.00;99052.25;5269192;28;20019;-77
2024/03/26 10:43:58;;;;;;;9.77;2.92;;;;;;;12.81;100.00;99048.44;5264611;28;20473;-74
2024/03/26 10:46:30;;;;;;;12.48;2.85;;;;;;;12.91;100.00;99041.47;5267069;28;20073;-74
2024/03/26 10:49:02;;;;;;;6.63;2.40;;;;;;;13.01;100.00;99048.22;5268020;28;20503;-75
2024/03/26 10:51:35;;;;;;;11.43;2.92;;;;;;;13.05;100.00;99050.22;5265961;28;20051;-75
2024/03/26 10:54:07;;;;;;;6.05;3.00;;;;;;;13.12;100.00;99056.34;5265666;28;20032;-75
2024/03/26 10:56:38;;;;;;;6.80;3.00;;;;;;;13.21;100.00;99046.94;5270848;28;20470;-76
2024/03/26 10:59:09;;;;;;;8.65;2.60;;;;;;;13.11;100.00;99052.00;5267272;28;20058;-74
2024/03/26 11:01:42;;;;;;;8.13;3.13;;;;;;;13.20;100.00;99049.81;5265708;28;20024;-75
2024/03/26 11:04:13;;;;;;;11.50;3.10;;;;;;;13.28;100.00;99043.34;5266353;28;20488;-78
2024/03/26 11:06:44;;;;;;;5.15;2.60;;;;;;;13.43;100.00;99038.34;5264894;28;20047;-75
2024/03/26 11:09:15;;;;;;;7.07;3.30;;;;;;;13.53;100.00;99035.94;5268913;28;20059;-74
2024/03/26 11:11:48;;;;;;;8.90;2.78;;;;;;;13.61;100.00;99032.94;5265274;28;20027;-75
2024/03/26 11:14:20;;;;;;;5.53;2.75;;;;;;;13.63;100.00;99027.28;5268689;28;20035;-76
2024/03/26 11:16:50;;;;;;;6.13;2.75;;;;;;;13.72;100.00;99024.03;5267219;28;20065;-74
2024/03/26 11:19:24;;;;;;;6.80;2.65;;;;;;;14.04;100.00;99026.44;5268385;28;20027;-76
2024/03/26 11:21:54;;;;;;;10.63;2.67;;;;;;;14.34;100.00;99025.50;5267170;28;20089;-75
2024/03/26 11:24:30;;;;;;;9.45;3.00;;;;;;;14.53;100.00;99023.53;5266028;28;20191;-76
2024/03/26 11:27:03;;;;;;;9.77;3.13;;;;;;;14.56;100.00;99023.91;5266071;28;20016;-78
2024/03/26 11:29:35;;;;;;;7.70;2.67;;;;;;;14.70;100.00;99022.56;5263266;28;20045;-76
2024/03/26 11:32:07;;;;;;;6.32;2.92;;;;;;;14.75;100.00;99011.06;5273439;28;20393;-77
2024/03/26 11:34:37;;;;;;;6.57;2.70;;;;;;;14.92;100.00;99006.56;5269400;28;20024;-75
2024/03/26 11:37:08;;;;;;;7.07;2.78;;;;;;;15.01;100.00;99015.94;5268721;28;20512;-76
2024/03/26 11:39:40;;;;;;;10.27;2.88;;;;;;;14.89;100.00;99012.44;5263074;28;20107;-74
2024/03/26 11:42:11;;;;;;;3.92;2.63;;;;;;;15.01;100.00;99004.31;5266012;28;20036;-75
2024/03/26 11:44:42;;;;;;;5.50;2.60;;;;;;;14.87;100.00;98992.97;5266866;28;20035;-75
2024/03/26 11:47:12;;;;;;;10.35;3.67;;;;;;;14.92;100.00;98993.06;5271050;28;20015;-79